createdAt,value
2017-12-15T00:00:09.951Z,1.70
2017-12-15T00:02:36.519Z,1.92
2017-12-15T00:05:02.784Z,1.70
2017-12-15T00:07:29.060Z,1.60
2017-12-15T00:09:55.676Z,1.20
2017-12-15T00:12:22.277Z,1.30
2017-12-15T00:14:48.551Z,1.30
2017-12-15T00:17:14.816Z,1.50
2017-12-15T00:19:41.065Z,1.60
2017-12-15T00:22:07.300Z,1.23
2017-12-15T00:24:33.577Z,2.05
2017-12-15T00:26:59.823Z,1.20
2017-12-15T00:29:26.039Z,1.52
2017-12-15T00:31:52.344Z,1.85
2017-12-15T00:34:18.581Z,2.10
2017-12-15T00:36:45.195Z,1.80
2017-12-15T00:39:11.452Z,1.92
2017-12-15T00:41:38.042Z,1.90
2017-12-15T00:44:04.364Z,1.58
2017-12-15T00:46:30.590Z,1.52
2017-12-15T00:48:56.833Z,2.20
2017-12-15T00:51:23.646Z,2.40
2017-12-15T00:53:49.901Z,2.22
2017-12-15T00:56:16.193Z,3.03
2017-12-15T00:58:42.413Z,2.65
2017-12-15T01:01:08.615Z,2.42
2017-12-15T01:03:34.847Z,2.80
2017-12-15T01:06:01.043Z,4.25
2017-12-15T01:08:27.301Z,3.28
2017-12-15T01:10:53.502Z,3.78
2017-12-15T01:13:19.773Z,4.47
2017-12-15T01:15:46.002Z,3.50
2017-12-15T01:18:12.222Z,2.60
2017-12-15T01:20:38.826Z,2.45
2017-12-15T01:23:05.049Z,2.22
2017-12-15T01:25:31.321Z,2.25
2017-12-15T01:27:57.563Z,2.30
2017-12-15T01:30:23.772Z,3.67
2017-12-15T01:32:50.898Z,10.32
2017-12-15T01:35:17.123Z,20.05
2017-12-15T01:37:43.726Z,21.50
2017-12-15T01:40:09.985Z,50.33
2017-12-15T01:42:36.220Z,23.12
2017-12-15T01:45:02.449Z,45.03
2017-12-15T01:47:28.720Z,85.68
2017-12-15T01:49:55.931Z,78.30
2017-12-15T01:52:22.559Z,98.62
2017-12-15T01:54:48.932Z,102.95
2017-12-15T01:57:15.156Z,79.10
2017-12-15T01:59:41.427Z,88.93
2017-12-15T02:02:07.647Z,76.20
2017-12-15T02:04:33.880Z,108.25
2017-12-15T02:07:00.157Z,77.28
2017-12-15T02:09:26.808Z,75.75
2017-12-15T02:11:53.076Z,23.55
2017-12-15T02:14:19.892Z,47.03
2017-12-15T02:16:46.149Z,100.45
2017-12-15T02:19:12.462Z,73.62
2017-12-15T02:21:38.692Z,95.10
2017-12-15T02:24:04.930Z,96.28
2017-12-15T02:26:31.139Z,107.10
2017-12-15T02:28:57.369Z,89.55
2017-12-15T02:31:23.572Z,65.70
2017-12-15T02:33:49.844Z,92.12
2017-12-15T02:36:16.033Z,83.75
2017-12-15T02:38:42.225Z,77.70
2017-12-15T02:41:08.514Z,93.07
2017-12-15T02:43:34.737Z,80.53
2017-12-15T02:46:01.045Z,69.37
2017-12-15T02:48:27.772Z,16.98
2017-12-15T02:50:54.381Z,24.08
2017-12-15T02:53:20.743Z,42.20
2017-12-15T02:55:47.369Z,77.70
2017-12-15T02:58:14.021Z,141.35
2017-12-15T03:00:40.606Z,73.87
2017-12-15T03:03:06.821Z,71.30
2017-12-15T03:05:33.114Z,73.20
2017-12-15T03:07:59.777Z,81.20
2017-12-15T03:10:26.004Z,71.60
2017-12-15T03:12:52.276Z,75.47
2017-12-15T03:15:18.513Z,80.93
2017-12-15T03:17:44.760Z,76.35
2017-12-15T03:20:11.033Z,75.80
2017-12-15T03:22:37.264Z,75.90
2017-12-15T03:25:03.549Z,75.93
2017-12-15T03:27:29.784Z,81.25
2017-12-15T03:29:56.086Z,76.22
2017-12-15T03:32:22.350Z,77.72
2017-12-15T03:34:48.598Z,75.07
2017-12-15T03:37:14.836Z,79.03
2017-12-15T03:39:41.090Z,76.35
2017-12-15T03:42:07.362Z,72.78
2017-12-15T03:44:33.936Z,71.87
2017-12-15T03:47:00.176Z,84.87
2017-12-15T03:49:26.449Z,45.92
2017-12-15T03:51:53.047Z,70.20
2017-12-15T03:54:19.256Z,18.67
2017-12-15T03:56:45.469Z,9.15
2017-12-15T03:59:11.703Z,30.88
2017-12-15T04:01:37.899Z,9.18
2017-12-15T04:04:04.150Z,9.60
2017-12-15T04:06:30.410Z,15.00
2017-12-15T04:08:56.623Z,6.15
2017-12-15T04:11:22.812Z,7.22
2017-12-15T04:13:49.038Z,8.55
2017-12-15T04:16:15.289Z,10.50
2017-12-15T04:18:41.531Z,19.00
2017-12-15T04:21:07.761Z,10.20
2017-12-15T04:23:33.973Z,11.25
2017-12-15T04:26:00.180Z,7.55
2017-12-15T04:28:26.464Z,4.60
2017-12-15T04:30:52.761Z,5.00
2017-12-15T04:33:18.994Z,6.60
2017-12-15T04:35:45.267Z,4.68
2017-12-15T04:38:11.531Z,3.78
2017-12-15T04:40:37.796Z,6.25
2017-12-15T04:43:04.038Z,5.60
2017-12-15T04:45:30.287Z,6.50
2017-12-15T04:47:56.911Z,7.25
2017-12-15T04:50:23.165Z,5.80
2017-12-15T04:52:49.743Z,6.47
2017-12-15T04:55:16.077Z,11.70
2017-12-15T04:57:42.458Z,9.68
2017-12-15T05:00:09.677Z,13.82
2017-12-15T05:02:35.936Z,18.90
2017-12-15T05:05:08.947Z,25.25
2017-12-15T05:07:35.173Z,25.83
2017-12-15T05:10:01.868Z,29.30
2017-12-15T05:12:28.132Z,51.03
2017-12-15T05:14:54.454Z,58.33
2017-12-15T05:17:21.131Z,13.38
2017-12-15T05:19:47.357Z,8.52
2017-12-15T05:22:13.574Z,7.47
2017-12-15T05:24:39.842Z,5.35
2017-12-15T05:27:06.092Z,6.78
2017-12-15T05:29:32.366Z,5.68
2017-12-15T05:31:58.692Z,17.48
2017-12-15T05:34:24.924Z,21.33
2017-12-15T05:36:51.239Z,28.10
2017-12-15T05:39:17.946Z,35.92
2017-12-15T05:41:44.159Z,71.72
2017-12-15T05:44:11.397Z,53.70
2017-12-15T05:46:38.116Z,36.85
2017-12-15T05:49:04.332Z,40.80
2017-12-15T05:51:30.559Z,47.42
2017-12-15T05:53:56.832Z,25.85
2017-12-15T05:56:23.072Z,45.38
2017-12-15T05:58:49.382Z,48.92
2017-12-15T06:01:15.629Z,64.30
2017-12-15T06:03:41.916Z,84.03
2017-12-15T06:06:08.119Z,50.80
2017-12-15T06:08:35.196Z,37.08
2017-12-15T06:11:01.404Z,53.53
2017-12-15T06:13:27.622Z,58.65
2017-12-15T06:15:53.991Z,71.18
2017-12-15T06:18:20.201Z,42.53
2017-12-15T06:20:46.482Z,21.25
2017-12-15T06:23:12.710Z,24.58
2017-12-15T06:25:39.907Z,30.90
2017-12-15T06:28:06.088Z,25.67
2017-12-15T06:30:32.353Z,17.90
2017-12-15T06:32:58.648Z,29.70
2017-12-15T06:35:24.920Z,32.25
2017-12-15T06:37:51.203Z,51.17
2017-12-15T06:40:17.452Z,73.10
2017-12-15T06:42:43.722Z,42.62
2017-12-15T06:45:10.067Z,27.08
2017-12-15T06:47:36.348Z,66.85
2017-12-15T06:50:02.585Z,40.55
2017-12-15T06:52:28.914Z,8.23
2017-12-15T06:54:55.523Z,8.98
2017-12-15T06:57:22.170Z,8.02
2017-12-15T06:59:48.797Z,8.85
2017-12-15T07:02:15.853Z,6.72
2017-12-15T07:04:42.459Z,13.43
2017-12-15T07:07:08.685Z,3.97
2017-12-15T07:09:34.937Z,4.32
2017-12-15T07:12:01.150Z,3.28
2017-12-15T07:14:27.484Z,3.42
2017-12-15T07:16:53.834Z,2.65
2017-12-15T07:19:20.448Z,2.95
2017-12-15T07:21:46.812Z,3.17
2017-12-15T07:24:13.104Z,2.85
2017-12-15T07:26:39.572Z,2.78
2017-12-15T07:29:05.941Z,4.75
2017-12-15T07:31:32.475Z,3.22
2017-12-15T07:33:58.712Z,2.72
2017-12-15T07:36:24.946Z,2.62
2017-12-15T07:38:51.167Z,3.12
2017-12-15T07:41:17.446Z,2.42
2017-12-15T07:43:44.057Z,2.20
2017-12-15T07:46:10.354Z,3.45
2017-12-15T07:48:36.614Z,4.10
2017-12-15T07:51:02.908Z,2.92
2017-12-15T07:53:29.228Z,2.25
2017-12-15T07:55:55.644Z,5.43
2017-12-15T07:58:22.249Z,7.68
2017-12-15T08:00:48.527Z,7.93
2017-12-15T08:03:14.773Z,5.18
2017-12-15T08:05:41.061Z,4.37
2017-12-15T08:08:07.336Z,5.62
2017-12-15T08:10:33.616Z,7.25
2017-12-15T08:13:00.200Z,7.70
2017-12-15T08:15:26.565Z,6.87
2017-12-15T08:17:52.851Z,7.62
2017-12-15T08:20:19.102Z,5.25
2017-12-15T08:22:45.355Z,6.22
2017-12-15T08:25:11.592Z,5.55
2017-12-15T08:27:38.202Z,4.32
2017-12-15T08:30:04.464Z,3.08
2017-12-15T08:32:30.787Z,3.92
2017-12-15T08:34:57.181Z,3.47
2017-12-15T08:37:23.414Z,6.68
2017-12-15T08:39:49.703Z,2.62
2017-12-15T08:42:16.045Z,2.47
2017-12-15T08:44:42.581Z,2.83
2017-12-15T08:47:08.938Z,3.05
2017-12-15T08:49:35.885Z,2.85
2017-12-15T08:52:02.192Z,3.03
2017-12-15T08:54:28.425Z,2.30
2017-12-15T08:56:54.703Z,2.85
2017-12-15T08:59:20.977Z,1.92
2017-12-15T09:01:47.238Z,1.67
2017-12-15T09:04:19.544Z,3.85
2017-12-15T09:06:46.186Z,2.10
2017-12-15T09:09:12.884Z,3.37
2017-12-15T09:11:39.127Z,5.05
2017-12-15T09:14:05.374Z,4.03
2017-12-15T09:16:32.023Z,3.40
2017-12-15T09:18:58.226Z,5.22
2017-12-15T09:21:24.474Z,3.25
2017-12-15T09:23:51.094Z,6.28
2017-12-15T09:26:17.494Z,5.75
2017-12-15T09:28:43.696Z,4.78
2017-12-15T09:31:09.974Z,2.70
2017-12-15T09:33:36.318Z,2.50
2017-12-15T09:36:02.587Z,2.70
2017-12-15T09:38:28.835Z,2.85
2017-12-15T09:40:55.135Z,2.80
2017-12-15T09:43:21.341Z,3.60
2017-12-15T09:45:47.595Z,4.07
2017-12-15T09:48:13.944Z,3.60
2017-12-15T09:50:40.206Z,4.35
2017-12-15T09:53:06.821Z,4.05
2017-12-15T09:55:33.474Z,2.50
2017-12-15T09:57:59.703Z,1.12
2017-12-15T10:00:26.003Z,2.00
2017-12-15T10:02:52.292Z,3.60
2017-12-15T10:05:18.504Z,1.45
2017-12-15T10:07:51.550Z,11.20
2017-12-15T10:10:18.221Z,1.62
2017-12-15T10:12:44.478Z,2.15
2017-12-15T10:15:10.728Z,4.28
2017-12-15T10:17:36.979Z,2.10
2017-12-15T10:20:03.239Z,2.00
2017-12-15T10:22:29.629Z,2.50
2017-12-15T10:24:55.937Z,3.45
2017-12-15T10:27:29.131Z,2.30
2017-12-15T10:29:55.467Z,1.75
2017-12-15T10:32:21.783Z,2.55
2017-12-15T10:34:48.072Z,2.30
2017-12-15T10:37:14.365Z,1.23
2017-12-15T10:39:41.057Z,1.85
2017-12-15T10:42:07.311Z,3.03
2017-12-15T10:44:33.562Z,2.03
2017-12-15T10:46:59.816Z,2.15
2017-12-15T10:49:26.023Z,2.65
2017-12-15T10:51:52.243Z,1.12
2017-12-15T10:54:18.447Z,1.80
2017-12-15T10:56:44.985Z,1.20
2017-12-15T10:59:11.236Z,1.95
2017-12-15T11:01:37.460Z,3.60
2017-12-15T11:04:03.670Z,3.45
2017-12-15T11:06:29.918Z,1.58
2017-12-15T11:08:56.284Z,1.95
2017-12-15T11:11:22.516Z,1.52
2017-12-15T11:13:48.795Z,1.40
2017-12-15T11:16:15.071Z,1.92
2017-12-15T11:18:41.321Z,2.80
2017-12-15T11:21:07.782Z,2.70
2017-12-15T11:23:34.012Z,1.20
2017-12-15T11:26:00.732Z,1.85
2017-12-15T11:28:26.999Z,1.20
2017-12-15T11:30:53.294Z,0.65
2017-12-15T11:33:19.691Z,0.98
2017-12-15T11:35:45.944Z,1.85
2017-12-15T11:38:12.226Z,1.40
2017-12-15T11:40:38.461Z,1.90
2017-12-15T11:43:04.756Z,1.55
2017-12-15T11:45:30.980Z,1.15
2017-12-15T11:47:57.286Z,0.77
2017-12-15T11:50:24.077Z,1.15
2017-12-15T11:52:50.312Z,2.30
2017-12-15T11:55:16.631Z,1.33
2017-12-15T11:57:42.868Z,1.10
2017-12-15T12:00:09.154Z,2.90
2017-12-15T12:02:35.930Z,1.30
2017-12-15T12:05:02.270Z,1.35
2017-12-15T12:07:28.489Z,1.52
2017-12-15T12:09:54.729Z,1.87
2017-12-15T12:12:20.968Z,0.77
2017-12-15T12:14:47.266Z,1.70
2017-12-15T12:17:14.098Z,2.00
2017-12-15T12:19:40.776Z,1.02
2017-12-15T12:22:06.989Z,0.90
2017-12-15T12:24:33.241Z,1.50
2017-12-15T12:26:59.500Z,2.37
2017-12-15T12:29:26.138Z,3.65
2017-12-15T12:31:52.740Z,1.58
2017-12-15T12:34:19.000Z,1.20
2017-12-15T12:36:45.685Z,0.98
2017-12-15T12:39:11.899Z,0.98
2017-12-15T12:41:38.125Z,2.25
2017-12-15T12:44:04.357Z,3.25
2017-12-15T12:46:30.602Z,1.23
2017-12-15T12:48:57.586Z,2.15
2017-12-15T12:51:23.817Z,2.42
2017-12-15T12:53:50.421Z,2.37
2017-12-15T12:56:16.725Z,1.05
2017-12-15T12:58:42.956Z,2.65
2017-12-15T13:01:09.276Z,1.52
2017-12-15T13:03:35.522Z,2.03
2017-12-15T13:06:01.775Z,1.65
2017-12-15T13:08:28.030Z,2.45
2017-12-15T13:10:54.729Z,3.03
2017-12-15T13:13:20.960Z,1.37
2017-12-15T13:15:48.168Z,1.37
2017-12-15T13:18:14.455Z,1.35
2017-12-15T13:20:41.516Z,1.83
2017-12-15T13:23:08.451Z,1.10
2017-12-15T13:25:35.145Z,3.45
2017-12-15T13:28:01.402Z,4.40
2017-12-15T13:30:27.709Z,1.35
2017-12-15T13:32:53.996Z,1.95
2017-12-15T13:35:20.675Z,1.85
2017-12-15T13:37:46.961Z,1.30
2017-12-15T13:40:14.214Z,2.90
2017-12-15T13:42:40.482Z,1.65
2017-12-15T13:45:06.749Z,4.95
2017-12-15T13:47:33.038Z,3.87
2017-12-15T13:49:59.334Z,1.75
2017-12-15T13:52:25.640Z,2.33
2017-12-15T13:54:51.942Z,2.50
2017-12-15T13:57:18.217Z,2.28
2017-12-15T13:59:44.562Z,1.20
2017-12-15T14:02:11.187Z,2.12
2017-12-15T14:04:37.463Z,1.62
2017-12-15T14:07:03.753Z,2.35
2017-12-15T14:09:30.093Z,2.53
2017-12-15T14:11:56.268Z,2.17
2017-12-15T14:14:22.505Z,4.55
2017-12-15T14:16:48.762Z,3.45
2017-12-15T14:19:15.393Z,2.30
2017-12-15T14:21:41.630Z,2.20
2017-12-15T14:24:08.237Z,1.80
2017-12-15T14:26:34.485Z,2.28
2017-12-15T14:29:00.760Z,2.47
2017-12-15T14:31:27.026Z,4.12
2017-12-15T14:33:53.304Z,3.70
2017-12-15T14:36:19.620Z,2.00
2017-12-15T14:38:46.312Z,1.70
2017-12-15T14:41:12.600Z,1.90
2017-12-15T14:43:38.871Z,2.97
2017-12-15T14:46:05.211Z,3.30
2017-12-15T14:48:31.498Z,1.92
2017-12-15T14:50:57.726Z,2.03
2017-12-15T14:53:24.625Z,2.45
2017-12-15T14:55:51.892Z,2.22
2017-12-15T14:58:18.513Z,3.33
2017-12-15T15:00:44.873Z,4.87
2017-12-15T15:03:11.120Z,1.40
2017-12-15T15:05:37.390Z,4.07
2017-12-15T15:08:03.656Z,1.77
2017-12-15T15:10:29.939Z,2.72
2017-12-15T15:12:56.234Z,2.50
2017-12-15T15:15:22.552Z,2.33
2017-12-15T15:17:48.820Z,3.70
2017-12-15T15:20:15.048Z,4.65
2017-12-15T15:22:41.319Z,2.42
2017-12-15T15:25:07.545Z,4.80
2017-12-15T15:27:34.390Z,3.25
2017-12-15T15:30:00.622Z,2.53
2017-12-15T15:32:26.859Z,2.40
2017-12-15T15:34:53.152Z,4.35
2017-12-15T15:37:19.430Z,3.40
2017-12-15T15:39:45.721Z,3.65
2017-12-15T15:42:11.996Z,3.10
2017-12-15T15:44:38.306Z,3.47
2017-12-15T15:47:04.950Z,4.40
2017-12-15T15:49:31.221Z,9.27
2017-12-15T15:51:57.503Z,6.57
2017-12-15T15:54:23.796Z,5.10
2017-12-15T15:56:50.107Z,5.20
2017-12-15T15:59:16.373Z,3.83
2017-12-15T16:01:42.695Z,4.20
2017-12-15T16:04:09.967Z,2.80
2017-12-15T16:06:36.272Z,3.03
2017-12-15T16:09:02.530Z,2.20
2017-12-15T16:11:28.870Z,5.60
2017-12-15T16:13:55.272Z,5.68
2017-12-15T16:16:21.945Z,3.75
2017-12-15T16:18:48.203Z,2.95
2017-12-15T16:21:14.513Z,2.70
2017-12-15T16:23:40.762Z,3.90
2017-12-15T16:26:07.015Z,5.40
2017-12-15T16:28:33.311Z,4.60
2017-12-15T16:30:59.572Z,4.47
2017-12-15T16:33:25.826Z,3.90
2017-12-15T16:35:52.167Z,3.37
2017-12-15T16:38:18.915Z,5.10
2017-12-15T16:40:45.177Z,5.20
2017-12-15T16:43:12.659Z,5.93
2017-12-15T16:45:38.898Z,9.90
2017-12-15T16:48:05.269Z,12.68
2017-12-15T16:50:31.580Z,11.40
2017-12-15T16:52:58.200Z,6.72
2017-12-15T16:55:24.831Z,7.78
2017-12-15T16:57:51.093Z,5.10
2017-12-15T17:00:17.829Z,11.48
2017-12-15T17:02:44.489Z,9.55
2017-12-15T17:05:10.774Z,10.70
2017-12-15T17:07:37.013Z,6.03
2017-12-15T17:10:03.659Z,6.65
2017-12-15T17:12:30.314Z,3.97
2017-12-15T17:14:56.552Z,5.12
2017-12-15T17:17:22.865Z,9.38
2017-12-15T17:19:49.133Z,11.23
2017-12-15T17:22:15.524Z,15.10
2017-12-15T17:24:41.792Z,14.87
2017-12-15T17:27:08.037Z,12.73
2017-12-15T17:29:34.326Z,12.65
2017-12-15T17:32:00.604Z,12.63
2017-12-15T17:34:27.939Z,13.85
2017-12-15T17:36:54.200Z,15.55
2017-12-15T17:39:20.885Z,12.32
2017-12-15T17:41:47.115Z,5.28
2017-12-15T17:44:13.463Z,5.12
2017-12-15T17:46:39.742Z,2.75
2017-12-15T17:49:06.474Z,3.78
2017-12-15T17:51:32.765Z,2.40
2017-12-15T17:53:59.010Z,4.45
2017-12-15T17:56:25.307Z,3.92
2017-12-15T17:58:51.590Z,3.35
2017-12-15T18:01:18.201Z,4.60
2017-12-15T18:03:44.487Z,5.32
2017-12-15T18:06:10.746Z,4.95
2017-12-15T18:08:37.996Z,6.95
2017-12-15T18:11:04.223Z,8.45
2017-12-15T18:13:30.481Z,5.25
2017-12-15T18:15:57.440Z,9.77
2017-12-15T18:18:23.744Z,11.15
2017-12-15T18:20:50.047Z,7.53
2017-12-15T18:23:16.352Z,10.35
2017-12-15T18:25:42.648Z,14.15
2017-12-15T18:28:09.317Z,12.27
2017-12-15T18:30:35.569Z,10.80
2017-12-15T18:33:01.815Z,10.88
2017-12-15T18:35:28.042Z,9.57
2017-12-15T18:37:54.784Z,5.80
2017-12-15T18:40:21.115Z,6.30
2017-12-15T18:42:47.371Z,8.43
2017-12-15T18:45:13.752Z,5.60
2017-12-15T18:47:40.040Z,6.57
2017-12-15T18:50:06.354Z,7.47
2017-12-15T18:52:32.688Z,8.98
2017-12-15T18:54:58.941Z,6.37
2017-12-15T18:57:25.197Z,15.05
2017-12-15T18:59:51.459Z,13.10
2017-12-15T19:02:17.727Z,10.05
2017-12-15T19:04:44.387Z,8.60
2017-12-15T19:07:10.698Z,7.80
2017-12-15T19:09:37.018Z,7.87
2017-12-15T19:12:03.670Z,7.12
2017-12-15T19:14:29.942Z,9.32
2017-12-15T19:16:56.200Z,8.25
2017-12-15T19:19:22.574Z,7.30
2017-12-15T19:21:48.862Z,8.43
2017-12-15T19:24:15.134Z,5.30
2017-12-15T19:26:41.824Z,7.50
2017-12-15T19:29:08.200Z,10.88
2017-12-15T19:31:34.472Z,8.50
2017-12-15T19:34:01.838Z,9.50
2017-12-15T19:36:28.948Z,8.82
2017-12-15T19:38:55.303Z,8.38
2017-12-15T19:41:21.878Z,12.60
2017-12-15T19:43:48.237Z,6.75
2017-12-15T19:46:14.587Z,7.57
2017-12-15T19:48:40.961Z,12.20
2017-12-15T19:51:07.266Z,8.10
2017-12-15T19:53:34.686Z,10.63
2017-12-15T19:56:01.049Z,11.57
2017-12-15T19:58:29.107Z,12.80
2017-12-15T20:00:55.499Z,13.18
2017-12-15T20:03:22.124Z,7.30
2017-12-15T20:05:49.312Z,9.90
2017-12-15T20:08:15.977Z,7.07
2017-12-15T20:10:42.913Z,7.18
2017-12-15T20:13:09.431Z,9.60
2017-12-15T20:15:36.121Z,15.98
2017-12-15T20:18:02.776Z,13.60
2017-12-15T20:20:29.356Z,9.15
2017-12-15T20:22:55.920Z,7.50
2017-12-15T20:25:24.613Z,10.10
2017-12-15T20:27:51.263Z,10.80
2017-12-15T20:30:17.893Z,11.45
2017-12-15T20:32:44.570Z,9.07
2017-12-15T20:35:11.142Z,9.30
2017-12-15T20:37:37.813Z,10.80
2017-12-15T20:40:04.443Z,12.98
2017-12-15T20:42:31.053Z,17.67
2017-12-15T20:44:57.547Z,16.05
2017-12-15T20:47:24.268Z,14.85
2017-12-15T20:49:50.846Z,10.70
2017-12-15T20:52:17.431Z,10.77
2017-12-15T20:54:43.910Z,13.82
2017-12-15T20:57:10.599Z,12.05
2017-12-15T20:59:37.111Z,12.15
2017-12-15T21:02:03.755Z,14.00
2017-12-15T21:04:30.281Z,14.55
2017-12-15T21:06:56.793Z,22.20
2017-12-15T21:09:23.481Z,15.43
2017-12-15T21:11:49.931Z,15.23
2017-12-15T21:14:16.393Z,13.25
2017-12-15T21:16:42.773Z,14.38
2017-12-15T21:19:09.128Z,9.90
2017-12-15T21:21:35.769Z,10.60
2017-12-15T21:24:02.801Z,19.67
2017-12-15T21:26:30.016Z,10.15
2017-12-15T21:28:56.391Z,11.57
2017-12-15T21:31:22.706Z,8.15
2017-12-15T21:33:49.841Z,10.13
2017-12-15T21:36:16.127Z,10.60
2017-12-15T21:38:42.442Z,19.75
2017-12-15T21:41:08.793Z,12.73
2017-12-15T21:43:37.718Z,16.45
2017-12-15T21:46:04.420Z,17.10
2017-12-15T21:48:30.745Z,14.07
2017-12-15T21:50:57.272Z,12.02
2017-12-15T21:53:24.456Z,13.65
2017-12-15T21:55:51.687Z,20.70
2017-12-15T21:58:18.076Z,15.30
2017-12-15T22:00:44.965Z,14.65
2017-12-15T22:03:11.251Z,7.97
2017-12-15T22:05:37.863Z,11.77
2017-12-15T22:08:07.521Z,8.55
2017-12-15T22:10:33.821Z,10.85
2017-12-15T22:13:00.141Z,14.85
2017-12-15T22:15:26.376Z,7.53
2017-12-15T22:17:52.621Z,7.50
2017-12-15T22:20:20.208Z,8.45
2017-12-15T22:22:46.468Z,8.55
2017-12-15T22:25:12.809Z,9.70
2017-12-15T22:27:39.099Z,7.72
2017-12-15T22:30:05.378Z,9.80
2017-12-15T22:32:31.670Z,11.52
2017-12-15T22:34:58.922Z,7.25
2017-12-15T22:37:25.171Z,9.55
2017-12-15T22:39:51.486Z,13.23
2017-12-15T22:42:17.740Z,8.50
2017-12-15T22:44:44.037Z,9.05
2017-12-15T22:47:10.297Z,9.75
2017-12-15T22:49:36.515Z,8.60
2017-12-15T22:52:02.879Z,9.70
2017-12-15T22:54:30.444Z,8.48
2017-12-15T22:56:57.070Z,8.02
2017-12-15T22:59:23.336Z,8.63
2017-12-15T23:01:49.539Z,9.93
2017-12-15T23:04:16.701Z,18.33
2017-12-15T23:06:43.004Z,14.38
2017-12-15T23:09:09.268Z,14.18
2017-12-15T23:11:35.522Z,16.25
2017-12-15T23:14:01.799Z,11.75
2017-12-15T23:16:28.686Z,12.45
2017-12-15T23:18:55.921Z,9.40
2017-12-15T23:21:22.163Z,8.60
2017-12-15T23:23:48.414Z,10.32
2017-12-15T23:26:14.683Z,9.77
2017-12-15T23:28:41.748Z,7.97
2017-12-15T23:31:08.117Z,11.30
2017-12-15T23:33:34.419Z,10.20
2017-12-15T23:36:00.646Z,10.48
2017-12-15T23:38:26.914Z,10.07
2017-12-15T23:40:53.241Z,6.80
2017-12-15T23:43:19.495Z,6.80
2017-12-15T23:45:45.847Z,8.35
2017-12-15T23:48:12.101Z,12.18
2017-12-15T23:50:38.362Z,10.93
2017-12-15T23:53:04.821Z,7.40
2017-12-15T23:55:43.304Z,12.85
2017-12-15T23:58:09.545Z,12.98
